Time;durP1;ratioP1;P1;durP2;ratioP2;P2;SDS_P1;SDS_P2;PMS_P1;PMS_P2;Temp;Humidity;BMP_temperature;BMP_pressure;BME280_temperature;BME280_humidity;BME280_pressure;Samples;Min_cycle;Max_cycle;Signal;HPM_P1;HPM_P2
2021/09/11 00:01:58;;;;;;;5.97;3.20;;;13.30;99.90;;;;;;4140035;28;20093;-66
2021/09/11 00:03:59;;;;;;;9.33;3.77;;;13.30;99.90;;;;;;4140389;28;20084;-66
2021/09/11 00:06:00;;;;;;;6.83;3.50;;;13.30;99.90;;;;;;4140462;28;20049;-65
2021/09/11 00:08:01;;;;;;;7.90;3.93;;;13.30;99.90;;;;;;4140323;28;20026;-66
2021/09/11 00:10:04;;;;;;;6.73;4.00;;;13.30;99.90;;;;;;4140003;28;20063;-65
2021/09/11 00:12:06;;;;;;;6.73;3.40;;;13.30;99.90;;;;;;4138820;28;20038;-66
2021/09/11 00:14:08;;;;;;;5.80;3.43;;;13.20;99.90;;;;;;4140386;28;20119;-65
2021/09/11 00:16:09;;;;;;;6.37;3.70;;;13.20;99.90;;;;;;4140101;28;20042;-65
2021/09/11 00:18:10;;;;;;;4.93;3.27;;;13.20;99.90;;;;;;4140055;28;20557;-66
2021/09/11 00:20:11;;;;;;;7.80;3.47;;;13.10;99.90;;;;;;4139091;28;20461;-65
2021/09/11 00:22:13;;;;;;;7.30;3.70;;;13.10;99.90;;;;;;4139844;28;20034;-65
2021/09/11 00:24:14;;;;;;;5.20;3.40;;;13.10;99.90;;;;;;4140153;28;20041;-66
2021/09/11 00:26:15;;;;;;;6.47;3.80;;;13.10;99.90;;;;;;4138363;28;20641;-67
2021/09/11 00:28:16;;;;;;;7.23;4.33;;;13.00;99.90;;;;;;4139396;28;20081;-67
2021/09/11 00:30:17;;;;;;;8.57;4.27;;;12.90;99.90;;;;;;4139464;28;20556;-67
2021/09/11 00:32:18;;;;;;;7.23;3.80;;;12.90;99.90;;;;;;4139923;28;20127;-67
2021/09/11 00:34:19;;;;;;;6.70;4.10;;;12.90;99.90;;;;;;4140352;28;20026;-66
2021/09/11 00:36:21;;;;;;;5.63;3.80;;;12.80;99.90;;;;;;4140041;28;20041;-67
2021/09/11 00:38:22;;;;;;;6.40;3.90;;;12.80;99.90;;;;;;4139751;28;20042;-67
2021/09/11 00:40:23;;;;;;;4.80;3.43;;;12.80;99.90;;;;;;4139693;28;20030;-67
2021/09/11 00:42:24;;;;;;;8.17;3.67;;;12.80;99.90;;;;;;4139814;28;20088;-66
2021/09/11 00:44:25;;;;;;;7.70;4.27;;;12.80;99.90;;;;;;4139954;28;20529;-66
2021/09/11 00:46:26;;;;;;;9.50;4.53;;;12.70;99.90;;;;;;4139616;28;20038;-65
2021/09/11 00:48:28;;;;;;;7.00;4.27;;;12.70;99.90;;;;;;4139556;28;20418;-67
2021/09/11 00:50:29;;;;;;;7.20;3.77;;;12.80;99.90;;;;;;4139548;28;20903;-66
2021/09/11 00:52:30;;;;;;;8.40;4.37;;;12.70;99.90;;;;;;4139423;28;20030;-66
2021/09/11 00:54:31;;;;;;;7.63;4.40;;;12.70;99.90;;;;;;4139633;28;20030;-67
2021/09/11 00:56:34;;;;;;;9.60;4.20;;;12.70;99.90;;;;;;4139930;28;20038;-66
2021/09/11 00:58:36;;;;;;;7.80;4.47;;;12.70;99.90;;;;;;4139766;28;20045;-65
2021/09/11 01:00:38;;;;;;;7.93;4.20;;;12.60;99.90;;;;;;4139226;28;20064;-66
2021/09/11 01:02:39;;;;;;;8.00;4.00;;;12.70;99.90;;;;;;4139787;28;20042;-66
2021/09/11 01:04:40;;;;;;;7.47;3.73;;;12.60;99.90;;;;;;4139340;28;20033;-66
2021/09/11 01:06:42;;;;;;;7.60;3.63;;;12.60;99.90;;;;;;4140203;28;20034;-66
2021/09/11 01:08:43;;;;;;;8.33;3.83;;;12.70;99.90;;;;;;4139672;28;20029;-66
2021/09/11 01:10:45;;;;;;;8.60;4.03;;;12.60;99.90;;;;;;4139074;28;20436;-65
2021/09/11 01:12:47;;;;;;;7.17;4.07;;;12.60;99.90;;;;;;4139465;28;20478;-66
2021/09/11 01:14:48;;;;;;;8.57;4.30;;;12.60;99.90;;;;;;4139261;28;20030;-66
2021/09/11 01:16:49;;;;;;;5.63;3.77;;;12.60;99.90;;;;;;4139763;28;20030;-66
2021/09/11 01:18:50;;;;;;;11.07;4.70;;;12.60;99.90;;;;;;4139437;28;20108;-66
2021/09/11 01:20:52;;;;;;;9.93;4.27;;;12.50;99.90;;;;;;4139894;28;20084;-66
2021/09/11 01:22:54;;;;;;;13.43;5.27;;;12.40;99.90;;;;;;4139484;28;20096;-67
2021/09/11 01:24:57;;;;;;;9.07;4.13;;;12.40;99.90;;;;;;4139871;28;20026;-66
2021/09/11 01:26:59;;;;;;;8.17;4.77;;;12.40;99.90;;;;;;4138885;28;20093;-66
2021/09/11 01:29:00;;;;;;;7.37;3.80;;;12.30;99.90;;;;;;4139374;28;20504;-66
2021/09/11 01:31:01;;;;;;;8.50;4.37;;;12.30;99.90;;;;;;4139395;28;20050;-67
2021/09/11 01:33:03;;;;;;;5.60;3.97;;;12.30;99.90;;;;;;4141672;28;20915;-66
2021/09/11 01:35:05;;;;;;;6.30;3.70;;;12.20;99.90;;;;;;4142518;28;20022;-67
2021/09/11 01:37:09;;;;;;;7.07;4.33;;;12.20;99.90;;;;;;4142945;28;20041;-67
2021/09/11 01:39:12;;;;;;;6.67;3.83;;;12.20;99.90;;;;;;4142379;28;20088;-66
2021/09/11 01:41:13;;;;;;;6.23;3.73;;;12.20;99.90;;;;;;4142378;28;20169;-66
2021/09/11 01:43:14;;;;;;;7.20;4.00;;;12.20;99.90;;;;;;4142587;28;20049;-66
2021/09/11 01:45:20;;;;;;;7.30;3.70;;;12.20;99.90;;;;;;4142917;28;20034;-67
2021/09/11 01:47:21;;;;;;;6.10;3.70;;;12.10;99.90;;;;;;4142307;28;20840;-67
2021/09/11 01:49:22;;;;;;;7.30;4.23;;;12.10;99.90;;;;;;4141949;28;20050;-67
2021/09/11 01:51:23;;;;;;;5.87;4.10;;;12.10;99.90;;;;;;4126658;28;20034;-65
2021/09/11 01:53:24;;;;;;;8.97;4.17;;;12.10;99.90;;;;;;4130240;28;20429;-66
2021/09/11 01:55:25;;;;;;;6.20;3.97;;;12.10;99.90;;;;;;4142718;28;20092;-66
2021/09/11 01:57:27;;;;;;;5.93;3.90;;;12.10;99.90;;;;;;4141882;28;20034;-66
2021/09/11 01:59:28;;;;;;;8.13;4.00;;;12.10;99.90;;;;;;4145335;28;20076;-66
2021/09/11 02:01:29;;;;;;;8.03;4.07;;;12.10;99.90;;;;;;4142908;28;20084;-66
2021/09/11 02:03:30;;;;;;;7.17;3.60;;;12.20;99.90;;;;;;4142446;28;20029;-65
2021/09/11 02:05:31;;;;;;;5.53;3.97;;;12.20;99.90;;;;;;4142046;28;20519;-66
2021/09/11 02:07:33;;;;;;;7.90;4.10;;;12.20;99.90;;;;;;4142496;28;20046;-65
2021/09/11 02:09:36;;;;;;;9.87;3.67;;;12.20;99.90;;;;;;4140387;28;20084;-66
2021/09/11 02:11:37;;;;;;;7.40;3.47;;;12.20;99.90;;;;;;4141528;28;20516;-65
2021/09/11 02:13:39;;;;;;;12.43;4.70;;;12.20;99.90;;;;;;4141925;28;20101;-66
2021/09/11 02:15:40;;;;;;;8.40;4.07;;;12.20;99.90;;;;;;4141803;28;20084;-68
2021/09/11 02:17:41;;;;;;;15.40;6.13;;;12.10;99.90;;;;;;4142041;28;20030;-67
2021/09/11 02:19:43;;;;;;;8.33;5.37;;;12.10;99.90;;;;;;4141776;28;20046;-66
2021/09/11 02:21:44;;;;;;;11.57;5.70;;;12.00;99.90;;;;;;4142085;28;20037;-67
2021/09/11 02:23:45;;;;;;;10.50;5.37;;;11.80;99.90;;;;;;4142118;28;20425;-67
2021/09/11 02:25:46;;;;;;;11.37;5.73;;;11.80;99.90;;;;;;4141795;28;20038;-66
2021/09/11 02:27:47;;;;;;;13.37;7.27;;;11.70;99.90;;;;;;4141438;28;20711;-66
2021/09/11 02:29:49;;;;;;;12.50;7.83;;;11.70;99.90;;;;;;4141523;28;20092;-66
2021/09/11 02:31:50;;;;;;;14.77;8.53;;;11.60;99.90;;;;;;4141575;28;20046;-66
2021/09/11 02:33:51;;;;;;;14.57;8.80;;;11.50;99.90;;;;;;4141848;28;20516;-66
2021/09/11 02:35:53;;;;;;;15.87;8.10;;;11.40;99.90;;;;;;4141338;28;20447;-66
2021/09/11 02:37:54;;;;;;;17.33;7.53;;;11.40;99.90;;;;;;4141894;28;20084;-66
2021/09/11 02:39:55;;;;;;;12.67;7.70;;;11.40;99.90;;;;;;4141136;28;20498;-66
2021/09/11 02:41:56;;;;;;;11.73;6.27;;;11.30;99.90;;;;;;4141644;28;20088;-66
2021/09/11 02:43:57;;;;;;;13.03;6.30;;;11.30;99.90;;;;;;4140149;28;20504;-66
2021/09/11 02:45:58;;;;;;;11.83;7.13;;;11.30;99.90;;;;;;4141369;28;20041;-66
2021/09/11 02:47:59;;;;;;;18.07;7.00;;;11.30;99.90;;;;;;4141452;28;20080;-66
2021/09/11 02:50:01;;;;;;;12.43;5.87;;;11.20;99.90;;;;;;4141565;28;20033;-65
2021/09/11 02:52:02;;;;;;;10.47;5.73;;;11.10;99.90;;;;;;4141217;28;20045;-66
2021/09/11 02:54:03;;;;;;;12.10;4.77;;;11.10;99.90;;;;;;4141109;28;20444;-66
2021/09/11 02:56:04;;;;;;;13.03;5.90;;;11.10;99.90;;;;;;4141300;28;20453;-66
2021/09/11 02:58:05;;;;;;;11.60;4.73;;;11.00;99.90;;;;;;4141443;28;20056;-66
2021/09/11 03:00:07;;;;;;;8.50;4.57;;;11.00;99.90;;;;;;4141541;28;20108;-67
2021/09/11 03:02:08;;;;;;;9.37;4.60;;;11.00;99.90;;;;;;4141199;28;20086;-66
2021/09/11 03:04:09;;;;;;;7.37;4.40;;;11.00;99.90;;;;;;4140783;28;20038;-66
2021/09/11 03:06:11;;;;;;;7.50;4.60;;;11.00;99.90;;;;;;4140912;28;20556;-66
2021/09/11 03:08:12;;;;;;;7.33;4.57;;;11.00;99.90;;;;;;4141659;28;20088;-66
2021/09/11 03:10:13;;;;;;;7.40;4.70;;;10.90;99.90;;;;;;4141396;28;20363;-66
2021/09/11 03:12:14;;;;;;;9.73;4.90;;;10.90;99.90;;;;;;4140820;28;20465;-68
2021/09/11 03:14:16;;;;;;;8.00;4.53;;;10.90;99.90;;;;;;4141197;28;20123;-67
2021/09/11 03:16:17;;;;;;;9.93;4.33;;;10.90;99.90;;;;;;4140721;28;20115;-67
2021/09/11 03:18:18;;;;;;;9.77;4.37;;;10.90;99.90;;;;;;4140975;28;20065;-66
2021/09/11 03:20:19;;;;;;;8.80;4.63;;;10.90;99.90;;;;;;4140771;28;20048;-67
2021/09/11 03:22:20;;;;;;;9.50;4.43;;;10.90;99.90;;;;;;4141141;28;20049;-67
2021/09/11 03:24:22;;;;;;;7.53;4.50;;;10.80;99.90;;;;;;4140888;28;20029;-66
2021/09/11 03:26:23;;;;;;;9.87;5.17;;;10.80;99.90;;;;;;4140409;28;20064;-67
2021/09/11 03:28:24;;;;;;;9.30;4.93;;;10.80;99.90;;;;;;4138982;28;20441;-67
2021/09/11 03:30:25;;;;;;;9.77;5.67;;;10.80;99.90;;;;;;4140594;28;20029;-66
2021/09/11 03:32:26;;;;;;;10.73;4.97;;;10.80;99.90;;;;;;4140270;28;20038;-66
2021/09/11 03:34:27;;;;;;;9.07;5.03;;;10.70;99.90;;;;;;4140965;28;20049;-67
2021/09/11 03:36:28;;;;;;;5.90;4.43;;;10.70;99.90;;;;;;4141151;28;20022;-66
2021/09/11 03:38:30;;;;;;;9.00;5.13;;;10.70;99.90;;;;;;4140683;28;20061;-67
2021/09/11 03:40:31;;;;;;;8.57;4.57;;;10.70;99.90;;;;;;4140371;28;20165;-68
2021/09/11 03:42:32;;;;;;;8.83;4.37;;;10.70;99.90;;;;;;4140605;28;20036;-66
2021/09/11 03:44:33;;;;;;;8.83;4.20;;;10.70;99.90;;;;;;4140579;28;20030;-67
2021/09/11 03:46:34;;;;;;;10.53;4.70;;;10.80;99.90;;;;;;4140869;28;20026;-66
2021/09/11 03:48:35;;;;;;;9.20;4.80;;;10.80;99.90;;;;;;4140699;28;20026;-67
2021/09/11 03:50:36;;;;;;;7.50;4.27;;;10.80;99.90;;;;;;4140251;28;20030;-66
2021/09/11 03:52:38;;;;;;;7.33;4.97;;;10.80;99.90;;;;;;4140275;28;20175;-67
2021/09/11 03:54:39;;;;;;;9.20;4.73;;;10.80;99.90;;;;;;4138032;28;20521;-66
2021/09/11 03:56:40;;;;;;;8.23;5.10;;;10.80;99.90;;;;;;4140627;28;20111;-67
2021/09/11 03:58:41;;;;;;;7.37;4.30;;;10.80;99.90;;;;;;4140265;28;20033;-67
2021/09/11 04:00:42;;;;;;;11.23;4.63;;;10.80;99.90;;;;;;4140044;28;20096;-67
2021/09/11 04:02:44;;;;;;;9.93;4.63;;;10.80;99.90;;;;;;4138930;28;20564;-67
2021/09/11 04:04:45;;;;;;;11.90;4.97;;;10.80;99.90;;;;;;4140168;28;20057;-67
2021/09/11 04:06:46;;;;;;;13.23;6.10;;;10.80;99.90;;;;;;4140444;28;20454;-67
2021/09/11 04:08:47;;;;;;;17.77;5.50;;;10.60;99.90;;;;;;4139880;28;20084;-67
2021/09/11 04:10:48;;;;;;;9.60;5.03;;;10.60;99.90;;;;;;4140044;28;20115;-67
2021/09/11 04:12:49;;;;;;;8.27;5.10;;;10.60;99.90;;;;;;4140052;28;20073;-67
2021/09/11 04:14:50;;;;;;;11.73;5.07;;;10.50;99.90;;;;;;4139729;28;20143;-67
2021/09/11 04:16:51;;;;;;;11.87;4.73;;;10.50;99.90;;;;;;4139883;28;20037;-66
2021/09/11 04:18:52;;;;;;;12.20;5.17;;;10.60;99.90;;;;;;4140168;28;20116;-66
2021/09/11 04:20:53;;;;;;;13.67;5.17;;;10.80;99.90;;;;;;4139319;28;20030;-67
2021/09/11 04:22:54;;;;;;;10.13;6.03;;;11.00;99.90;;;;;;4139769;28;20026;-66
2021/09/11 04:24:56;;;;;;;14.10;7.03;;;11.10;99.90;;;;;;4140284;28;20145;-67
2021/09/11 04:26:57;;;;;;;20.17;7.03;;;11.10;99.90;;;;;;4139998;28;20044;-67
2021/09/11 04:28:58;;;;;;;15.63;6.90;;;11.30;99.90;;;;;;4139550;28;20560;-67
2021/09/11 04:30:59;;;;;;;23.87;8.60;;;11.60;99.90;;;;;;4139767;28;20038;-67
2021/09/11 04:33:00;;;;;;;19.03;6.87;;;11.80;99.90;;;;;;4139673;28;20079;-67
2021/09/11 04:35:02;;;;;;;15.60;8.07;;;12.10;99.90;;;;;;4139559;28;20437;-67
2021/09/11 04:37:03;;;;;;;16.07;6.30;;;12.30;99.90;;;;;;4137671;28;20139;-66
2021/09/11 04:39:04;;;;;;;14.97;6.50;;;12.60;99.90;;;;;;4139187;28;20545;-66
2021/09/11 04:41:08;;;;;;;15.30;6.60;;;13.10;99.90;;;;;;4139150;28;20086;-67
2021/09/11 04:43:09;;;;;;;17.73;7.20;;;13.40;99.90;;;;;;4139448;28;20061;-67
2021/09/11 04:45:10;;;;;;;24.73;7.27;;;13.60;99.90;;;;;;4139450;28;20088;-67
2021/09/11 04:47:11;;;;;;;16.27;6.10;;;13.80;99.90;;;;;;4139542;28;20026;-67
2021/09/11 04:49:12;;;;;;;12.27;6.20;;;14.00;99.90;;;;;;4139019;28;20041;-66
2021/09/11 04:51:14;;;;;;;16.97;6.27;;;14.10;99.90;;;;;;4138962;28;20041;-67
2021/09/11 04:53:15;;;;;;;13.50;6.07;;;14.10;99.90;;;;;;4139161;28;20034;-68
2021/09/11 04:55:16;;;;;;;14.93;6.53;;;14.00;99.90;;;;;;4139163;28;20077;-67
2021/09/11 04:57:17;;;;;;;11.57;6.03;;;14.20;99.90;;;;;;4139105;28;20029;-67
2021/09/11 04:59:18;;;;;;;18.70;7.30;;;14.30;99.90;;;;;;4138390;28;20080;-65
2021/09/11 05:01:20;;;;;;;19.00;7.07;;;14.60;99.90;;;;;;4137344;28;20084;-66
2021/09/11 05:03:21;;;;;;;11.70;6.60;;;14.80;99.90;;;;;;4138354;28;20034;-66
2021/09/11 05:05:22;;;;;;;13.90;6.33;;;15.30;99.90;;;;;;4138751;28;20054;-67
2021/09/11 05:07:24;;;;;;;16.10;5.63;;;15.60;99.90;;;;;;4138503;28;20034;-67
2021/09/11 05:09:26;;;;;;;13.00;5.57;;;15.80;99.90;;;;;;4138688;28;20049;-67
2021/09/11 05:11:27;;;;;;;17.38;6.93;;;15.90;99.90;;;;;;4139071;28;20033;-67
2021/09/11 05:13:28;;;;;;;13.30;6.32;;;16.20;99.90;;;;;;4136990;28;20046;-68
2021/09/11 05:15:29;;;;;;;16.17;6.30;;;16.80;99.90;;;;;;4138728;28;20092;-66
2021/09/11 05:17:30;;;;;;;15.23;6.57;;;17.00;99.90;;;;;;4138405;28;20033;-67
2021/09/11 05:19:31;;;;;;;18.50;7.05;;;17.40;99.90;;;;;;4138753;28;20502;-67
2021/09/11 05:21:32;;;;;;;31.25;7.25;;;17.70;99.90;;;;;;4139238;28;20089;-68
2021/09/11 05:23:34;;;;;;;18.17;6.32;;;18.10;99.90;;;;;;4139123;28;20034;-67
2021/09/11 05:25:35;;;;;;;12.00;6.22;;;18.30;99.90;;;;;;4139019;28;20117;-68
2021/09/11 05:27:37;;;;;;;14.07;6.53;;;18.40;99.90;;;;;;4138738;28;20042;-66
2021/09/11 05:29:39;;;;;;;10.52;5.55;;;18.60;99.90;;;;;;4138533;28;20446;-67
2021/09/11 05:31:40;;;;;;;21.30;5.68;;;18.70;99.60;;;;;;4139416;28;20084;-67
2021/09/11 05:33:41;;;;;;;17.27;6.15;;;18.80;99.40;;;;;;4138698;28;20099;-67
2021/09/11 05:35:43;;;;;;;20.88;5.72;;;18.60;99.10;;;;;;4138720;28;20442;-67
2021/09/11 05:37:44;;;;;;;27.40;6.72;;;18.60;99.10;;;;;;4138122;28;20045;-67
2021/09/11 05:39:45;;;;;;;24.25;6.15;;;18.80;98.80;;;;;;4138507;28;20100;-67
2021/09/11 05:41:46;;;;;;;31.35;7.47;;;19.00;98.50;;;;;;4139028;28;20088;-66
2021/09/11 05:43:47;;;;;;;27.25;6.25;;;19.50;97.90;;;;;;4138345;28;20029;-67
2021/09/11 05:45:48;;;;;;;36.53;6.20;;;19.80;97.30;;;;;;4138315;28;20115;-67
2021/09/11 05:47:51;;;;;;;36.65;6.63;;;20.00;96.80;;;;;;4138693;28;20042;-67
2021/09/11 05:49:52;;;;;;;33.47;6.65;;;20.10;96.60;;;;;;4138586;28;20479;-67
2021/09/11 05:51:54;;;;;;;33.85;6.88;;;20.30;96.40;;;;;;4138175;28;20108;-68
2021/09/11 05:53:55;;;;;;;45.53;8.95;;;20.20;96.00;;;;;;4138994;28;20037;-66
2021/09/11 05:55:56;;;;;;;29.98;7.50;;;20.40;95.80;;;;;;4138722;28;20038;-68
2021/09/11 05:57:57;;;;;;;31.90;6.28;;;20.90;95.40;;;;;;4138874;28;20088;-67
2021/09/11 06:00:00;;;;;;;29.73;7.18;;;21.30;94.90;;;;;;4138130;28;20076;-65
2021/09/11 06:02:01;;;;;;;25.05;6.00;;;21.50;94.30;;;;;;4138552;28;20098;-66
2021/09/11 06:04:03;;;;;;;20.83;6.00;;;21.70;93.70;;;;;;4138011;28;20509;-67
2021/09/11 06:06:05;;;;;;;18.15;6.13;;;22.10;93.30;;;;;;4138952;28;20473;-67
2021/09/11 06:08:07;;;;;;;19.25;5.80;;;22.30;92.80;;;;;;4139204;28;20034;-71
2021/09/11 06:10:08;;;;;;;18.60;6.38;;;22.50;92.30;;;;;;4138618;28;20033;-66
2021/09/11 06:12:10;;;;;;;22.88;6.55;;;22.70;91.80;;;;;;4138470;28;20915;-68
2021/09/11 06:14:11;;;;;;;14.20;5.65;;;23.10;91.30;;;;;;4138681;28;20026;-68
2021/09/11 06:16:12;;;;;;;15.82;5.57;;;23.20;90.90;;;;;;4138798;28;20728;-73
2021/09/11 06:18:13;;;;;;;10.13;4.90;;;23.30;90.70;;;;;;4137396;28;20061;-70
2021/09/11 06:20:15;;;;;;;12.63;5.50;;;23.20;90.40;;;;;;4141477;28;20073;-69
2021/09/11 06:22:16;;;;;;;11.77;5.20;;;23.20;90.30;;;;;;4141311;28;20042;-68
2021/09/11 06:24:17;;;;;;;14.95;5.30;;;23.10;90.10;;;;;;4141168;28;20030;-67
2021/09/11 06:26:18;;;;;;;17.20;5.82;;;23.20;90.00;;;;;;4141690;28;20034;-67
2021/09/11 06:28:24;;;;;;;13.70;5.32;;;23.20;89.50;;;;;;4141357;28;20050;-69
2021/09/11 06:30:26;;;;;;;21.08;5.05;;;23.20;89.60;;;;;;4141538;28;20049;-67
2021/09/11 06:32:27;;;;;;;16.33;5.00;;;23.40;89.30;;;;;;4141190;28;20107;-68
2021/09/11 06:34:29;;;;;;;19.88;6.10;;;23.70;88.90;;;;;;4140328;28;20050;-69
2021/09/11 06:36:30;;;;;;;14.00;5.95;;;23.90;88.20;;;;;;4141140;28;20080;-67
2021/09/11 06:38:31;;;;;;;21.35;6.63;;;24.20;87.30;;;;;;4141476;28;20038;-69
2021/09/11 06:40:33;;;;;;;12.70;5.72;;;24.40;86.60;;;;;;4140107;28;20171;-67
2021/09/11 06:42:34;;;;;;;10.52;5.22;;;24.30;85.90;;;;;;4140952;28;20042;-69
2021/09/11 06:44:35;;;;;;;9.90;4.35;;;24.20;85.80;;;;;;4140998;28;20034;-66
2021/09/11 06:46:37;;;;;;;14.27;5.15;;;24.20;85.50;;;;;;4141282;28;20556;-71
2021/09/11 06:48:38;;;;;;;15.70;5.80;;;24.20;85.20;;;;;;4140844;28;20038;-70
2021/09/11 06:50:39;;;;;;;20.33;6.53;;;24.10;85.20;;;;;;4140596;28;20822;-70
2021/09/11 06:52:40;;;;;;;12.55;5.18;;;24.00;85.50;;;;;;4140931;28;20053;-71
2021/09/11 06:54:41;;;;;;;13.73;5.85;;;24.10;84.80;;;;;;4140944;28;20072;-71
2021/09/11 06:56:42;;;;;;;10.20;4.90;;;24.20;84.60;;;;;;4140913;28;20091;-67
2021/09/11 06:58:44;;;;;;;17.27;7.80;;;24.50;84.20;;;;;;4140849;28;20127;-75
2021/09/11 07:00:45;;;;;;;19.65;7.65;;;24.00;83.70;;;;;;4138981;28;20053;-68
2021/09/11 07:02:46;;;;;;;17.77;7.07;;;24.00;84.60;;;;;;4138266;28;20092;-68
2021/09/11 07:04:47;;;;;;;23.52;7.38;;;24.20;84.40;;;;;;4136176;28;20050;-73
2021/09/11 07:06:48;;;;;;;16.88;6.68;;;24.60;83.60;;;;;;4148363;28;20040;-66
2021/09/11 07:08:49;;;;;;;14.63;6.20;;;24.20;83.20;;;;;;4139902;28;20034;-66
2021/09/11 07:10:51;;;;;;;12.48;5.43;;;24.20;83.90;;;;;;4140186;28;20088;-69
2021/09/11 07:12:52;;;;;;;14.20;3.95;;;24.40;83.60;;;;;;4140586;28;20092;-69
2021/09/11 07:14:53;;;;;;;15.07;3.88;;;24.50;83.00;;;;;;4140720;28;20033;-67
2021/09/11 07:16:54;;;;;;;7.05;4.43;;;24.30;82.80;;;;;;4140539;28;20034;-68
2021/09/11 07:18:55;;;;;;;16.20;7.05;;;24.50;83.20;;;;;;4140390;28;20115;-70
2021/09/11 07:20:56;;;;;;;8.82;5.10;;;24.30;82.80;;;;;;4140678;28;20112;-70
2021/09/11 07:22:57;;;;;;;8.88;4.93;;;23.70;83.40;;;;;;4140720;28;20752;-67
2021/09/11 07:24:59;;;;;;;13.75;5.18;;;23.10;84.60;;;;;;4139932;28;20034;-68
2021/09/11 07:27:00;;;;;;;12.18;5.10;;;22.70;85.50;;;;;;4134135;28;20514;-68
2021/09/11 07:29:01;;;;;;;7.88;4.07;;;22.70;85.90;;;;;;4134674;28;20080;-64
2021/09/11 07:31:02;;;;;;;5.40;3.67;;;22.60;85.90;;;;;;4139389;28;20418;-66
2021/09/11 07:33:03;;;;;;;9.48;3.38;;;22.70;85.80;;;;;;4140210;28;20520;-69
2021/09/11 07:35:05;;;;;;;6.03;3.70;;;23.00;85.30;;;;;;4139921;28;20720;-67
2021/09/11 07:37:06;;;;;;;7.43;4.03;;;23.00;84.90;;;;;;4140334;28;20033;-67
2021/09/11 07:39:08;;;;;;;8.27;4.05;;;23.00;84.80;;;;;;4140610;28;20073;-67
2021/09/11 07:41:09;;;;;;;12.60;5.57;;;22.90;84.90;;;;;;4140432;28;20489;-67
2021/09/11 07:43:11;;;;;;;21.77;5.97;;;22.60;85.10;;;;;;4139732;28;20095;-67
2021/09/11 07:45:13;;;;;;;15.32;5.47;;;22.50;85.70;;;;;;4140066;28;20096;-68
2021/09/11 07:47:17;;;;;;;12.80;5.57;;;22.40;86.00;;;;;;4140289;28;20399;-67
2021/09/11 07:49:18;;;;;;;20.13;6.55;;;22.20;86.40;;;;;;4138713;28;20034;-66
2021/09/11 07:51:19;;;;;;;14.15;5.70;;;22.30;86.50;;;;;;4139408;28;20033;-66
2021/09/11 07:53:21;;;;;;;12.68;6.20;;;22.30;86.60;;;;;;4140454;28;20561;-69
2021/09/11 07:55:22;;;;;;;13.15;5.00;;;22.20;86.60;;;;;;4140039;28;20037;-72
2021/09/11 07:57:23;;;;;;;14.48;5.78;;;22.30;86.60;;;;;;4140198;28;20117;-69
2021/09/11 07:59:24;;;;;;;11.35;4.72;;;22.30;86.60;;;;;;4140201;28;20038;-70
2021/09/11 08:01:25;;;;;;;13.18;4.13;;;22.30;87.10;;;;;;4140283;28;20041;-70
2021/09/11 08:03:27;;;;;;;18.20;9.80;;;22.40;87.20;;;;;;4140043;28;20067;-70
2021/09/11 08:05:28;;;;;;;15.18;6.53;;;22.70;86.80;;;;;;4138816;28;20131;-69
2021/09/11 08:07:29;;;;;;;16.27;5.35;;;22.60;86.60;;;;;;4139711;28;20562;-70
2021/09/11 08:09:31;;;;;;;14.98;4.63;;;22.30;87.10;;;;;;4139378;28;20045;-69
2021/09/11 08:11:32;;;;;;;12.98;4.20;;;22.30;87.60;;;;;;4139459;28;20100;-68
2021/09/11 08:13:33;;;;;;;9.75;4.15;;;22.40;87.50;;;;;;4139931;28;20433;-69
2021/09/11 08:15:34;;;;;;;9.75;3.78;;;22.30;87.50;;;;;;4139872;28;20017;-67
2021/09/11 08:17:36;;;;;;;11.88;3.90;;;22.50;87.40;;;;;;4134502;28;20046;-69
2021/09/11 08:19:38;;;;;;;10.80;4.22;;;22.70;87.00;;;;;;4145318;28;20406;-73
2021/09/11 08:21:39;;;;;;;8.75;4.28;;;22.90;86.70;;;;;;4139426;28;20100;-69
2021/09/11 08:23:42;;;;;;;15.88;4.45;;;22.70;86.80;;;;;;4139045;28;20061;-67
2021/09/11 08:25:43;;;;;;;12.27;3.55;;;22.80;86.90;;;;;;4139499;28;20088;-68
2021/09/11 08:27:44;;;;;;;13.38;4.03;;;22.60;87.20;;;;;;4139200;28;20033;-68
2021/09/11 08:29:45;;;;;;;16.50;4.40;;;22.30;87.50;;;;;;4134818;28;20076;-67
2021/09/11 08:31:46;;;;;;;13.73;4.70;;;22.30;88.00;;;;;;4123891;28;20031;-67
2021/09/11 08:33:47;;;;;;;10.00;4.40;;;22.40;88.00;;;;;;4123840;28;20097;-67
2021/09/11 08:35:49;;;;;;;17.98;5.43;;;22.50;87.40;;;;;;4122984;28;20158;-66
2021/09/11 08:37:50;;;;;;;11.52;4.38;;;22.50;87.10;;;;;;4123558;28;20026;-69
2021/09/11 08:39:51;;;;;;;18.17;4.90;;;22.40;87.60;;;;;;4121177;28;20096;-67
2021/09/11 08:41:53;;;;;;;11.40;4.45;;;22.30;87.60;;;;;;4123314;28;20733;-68
2021/09/11 08:43:55;;;;;;;9.85;3.90;;;22.30;87.60;;;;;;4123106;28;20085;-69
2021/09/11 08:45:57;;;;;;;12.65;4.40;;;22.50;87.50;;;;;;4123308;28;20030;-67
2021/09/11 08:47:59;;;;;;;19.48;4.18;;;22.60;87.10;;;;;;4122996;28;20034;-67
2021/09/11 08:50:00;;;;;;;12.27;4.13;;;22.60;86.70;;;;;;4123061;28;20990;-68
2021/09/11 08:52:03;;;;;;;8.48;4.40;;;22.40;87.00;;;;;;4123048;28;20775;-69
2021/09/11 08:54:04;;;;;;;9.88;3.40;;;22.50;86.90;;;;;;4122894;28;20387;-68
2021/09/11 08:56:06;;;;;;;12.68;4.20;;;22.60;86.80;;;;;;4122902;28;20093;-68
2021/09/11 08:58:08;;;;;;;10.63;3.95;;;22.60;86.90;;;;;;4137302;28;20459;-67
2021/09/11 09:00:09;;;;;;;6.65;3.72;;;22.70;86.60;;;;;;4138204;28;20092;-67
2021/09/11 09:02:11;;;;;;;11.00;3.85;;;22.70;86.20;;;;;;4139096;28;20041;-67
2021/09/11 09:04:12;;;;;;;12.35;4.85;;;22.90;86.10;;;;;;4124289;28;20426;-69
2021/09/11 09:06:17;;;;;;;8.07;3.78;;;22.90;85.70;;;;;;4122173;28;20080;-67
2021/09/11 09:08:28;;;;;;;8.18;4.05;;;23.00;85.20;;;;;;4123367;28;20069;-69
2021/09/11 09:10:29;;;;;;;6.20;4.25;;;23.10;84.60;;;;;;4122379;28;20117;-67
2021/09/11 09:12:32;;;;;;;12.48;4.75;;;23.30;85.10;;;;;;4123009;28;20483;-68
2021/09/11 09:14:33;;;;;;;9.35;3.53;;;23.60;84.40;;;;;;4122545;28;20089;-68
2021/09/11 09:16:39;;;;;;;6.53;3.58;;;23.60;84.00;;;;;;4123877;28;20046;-68
2021/09/11 09:18:40;;;;;;;7.00;4.40;;;23.50;84.00;;;;;;4122327;28;20042;-67
2021/09/11 09:20:41;;;;;;;5.90;3.47;;;23.40;84.30;;;;;;4122574;28;20034;-68
2021/09/11 09:22:44;;;;;;;5.88;3.45;;;23.30;84.30;;;;;;4122561;28;20169;-68
2021/09/11 09:24:45;;;;;;;9.18;3.35;;;23.20;84.50;;;;;;4122814;28;20085;-67
2021/09/11 09:26:59;;;;;;;6.10;2.95;;;23.40;84.50;;;;;;4122715;28;20527;-67
2021/09/11 09:29:04;;;;;;;5.47;3.20;;;23.80;83.60;;;;;;4122884;28;20858;-69
2021/09/11 09:31:10;;;;;;;5.00;3.42;;;23.90;83.30;;;;;;4120573;28;20034;-67
2021/09/11 09:33:22;;;;;;;9.07;3.92;;;23.80;83.20;;;;;;4127106;28;20426;-70
2021/09/11 09:35:24;;;;;;;11.07;4.40;;;23.60;83.80;;;;;;4122598;28;20069;-67
2021/09/11 09:37:25;;;;;;;6.80;3.72;;;23.50;84.20;;;;;;4131442;28;20136;-68
2021/09/11 09:39:27;;;;;;;6.03;3.90;;;23.30;84.20;;;;;;4123005;28;20030;-69
2021/09/11 09:41:41;;;;;;;8.93;3.70;;;23.30;84.60;;;;;;4122830;28;20034;-68
2021/09/11 09:43:43;;;;;;;7.38;3.53;;;23.30;84.10;;;;;;4122597;28;20100;-68
2021/09/11 09:45:45;;;;;;;7.82;3.70;;;23.50;84.20;;;;;;4135391;28;20077;-69
2021/09/11 09:48:01;;;;;;;6.13;3.20;;;23.70;83.80;;;;;;4155085;28;20367;-71
2021/09/11 09:50:08;;;;;;;5.85;3.53;;;23.70;83.70;;;;;;4152778;28;20021;-70
2021/09/11 09:52:10;;;;;;;8.68;3.83;;;23.70;83.60;;;;;;4138911;28;20022;-70
2021/09/11 09:54:14;;;;;;;9.27;3.47;;;24.00;83.70;;;;;;4140064;28;20034;-71
2021/09/11 09:56:15;;;;;;;7.90;3.85;;;24.10;83.10;;;;;;4140884;28;20038;-72
2021/09/11 09:58:17;;;;;;;9.18;4.32;;;24.00;83.20;;;;;;4141329;28;20033;-70
2021/09/11 10:00:18;;;;;;;5.53;3.55;;;24.20;83.20;;;;;;4141878;28;20034;-71
2021/09/11 10:02:19;;;;;;;8.77;4.03;;;24.30;83.10;;;;;;4141769;28;20076;-70
2021/09/11 10:04:22;;;;;;;5.45;3.03;;;24.40;83.00;;;;;;4141980;28;20324;-69
2021/09/11 10:06:29;;;;;;;9.88;4.68;;;24.50;83.00;;;;;;4140911;28;20848;-71
2021/09/11 10:08:32;;;;;;;6.80;4.00;;;24.40;83.60;;;;;;4142005;28;20545;-69
2021/09/11 10:10:37;;;;;;;13.93;4.22;;;24.20;84.30;;;;;;4141238;28;20494;-71
2021/09/11 10:12:46;;;;;;;8.65;3.70;;;24.10;84.80;;;;;;4140118;28;20030;-71
2021/09/11 10:14:48;;;;;;;7.80;4.30;;;24.10;84.90;;;;;;4141472;28;20021;-68
2021/09/11 10:17:01;;;;;;;8.98;3.83;;;24.00;85.20;;;;;;4140937;28;20095;-71
2021/09/11 10:19:14;;;;;;;10.50;4.93;;;24.00;85.20;;;;;;4141286;28;20034;-70
2021/09/11 10:21:16;;;;;;;10.88;5.85;;;24.10;84.80;;;;;;4141548;28;20037;-71
2021/09/11 10:23:17;;;;;;;7.63;3.80;;;24.00;85.20;;;;;;4140660;28;20077;-69
2021/09/11 10:25:45;;;;;;;8.55;4.38;;;23.80;85.10;;;;;;4128263;28;20080;-69
2021/09/11 10:27:46;;;;;;;6.57;4.30;;;23.80;85.40;;;;;;4141145;28;20093;-72
2021/09/11 10:29:49;;;;;;;8.45;4.20;;;23.60;85.50;;;;;;4140923;28;20034;-69